Time;durP1;ratioP1;P1;durP2;ratioP2;P2;SDS_P1;SDS_P2;PMS_P1;PMS_P2;Temp;Humidity;BMP_temperature;BMP_pressure;BME280_temperature;BME280_humidity;BME280_pressure;Samples;Min_cycle;Max_cycle;Signal;HPM_P1;HPM_P2
2023/09/02 00:01:02;;;;;;;2.15;0.90;;;17.30;99.90;;;16.65;100.00;101017.09;4152526;28;20034;-75
2023/09/02 00:03:03;;;;;;;2.60;1.05;;;17.20;99.90;;;16.59;100.00;101016.00;4140184;28;20022;-75
2023/09/02 00:05:05;;;;;;;2.67;1.00;;;17.20;99.90;;;16.57;100.00;101020.69;4153042;28;20030;-75
2023/09/02 00:07:05;;;;;;;2.50;1.10;;;17.20;99.90;;;16.52;100.00;101029.22;4152918;28;20022;-75
2023/09/02 00:09:06;;;;;;;3.22;1.40;;;17.10;99.90;;;16.49;100.00;101032.25;4152856;28;20073;-75
2023/09/02 00:11:07;;;;;;;4.05;1.40;;;17.10;99.90;;;16.49;100.00;101031.41;4154029;28;20026;-75
2023/09/02 00:13:08;;;;;;;2.35;1.10;;;17.10;99.90;;;16.50;100.00;101041.91;4154018;28;20058;-75
2023/09/02 00:15:09;;;;;;;2.92;1.42;;;17.10;99.90;;;16.49;100.00;101040.22;4153758;28;20026;-75
2023/09/02 00:17:11;;;;;;;3.67;1.20;;;17.10;99.90;;;16.49;100.00;101037.56;4152623;28;20497;-75
2023/09/02 00:19:12;;;;;;;3.13;1.15;;;17.10;99.90;;;16.51;100.00;101037.41;4153864;28;20500;-75
2023/09/02 00:21:13;;;;;;;5.78;1.40;;;17.10;99.90;;;16.51;100.00;101035.56;4149171;28;20034;-75
2023/09/02 00:23:14;;;;;;;4.25;1.38;;;17.10;99.90;;;16.53;100.00;101033.53;4153842;28;20045;-75
2023/09/02 00:25:15;;;;;;;5.07;1.45;;;17.10;99.90;;;16.50;100.00;101033.91;4152628;28;20037;-75
2023/09/02 00:27:15;;;;;;;2.00;1.20;;;17.10;99.90;;;16.47;100.00;101039.59;4151685;28;20455;-75
2023/09/02 00:29:16;;;;;;;3.40;1.25;;;17.10;99.90;;;16.41;100.00;101021.72;4151941;28;20026;-75
2023/09/02 00:31:17;;;;;;;4.28;1.20;;;17.10;99.90;;;16.47;100.00;101031.63;4152542;28;20037;-75
2023/09/02 00:33:18;;;;;;;2.60;1.15;;;17.10;99.90;;;16.46;100.00;101029.97;4168739;28;20029;-75
2023/09/02 00:35:19;;;;;;;3.38;1.40;;;17.10;99.90;;;16.48;100.00;101035.94;4152848;28;20030;-75
2023/09/02 00:37:20;;;;;;;4.03;1.33;;;17.10;99.90;;;16.49;100.00;101036.75;4153501;28;20030;-76
2023/09/02 00:39:21;;;;;;;4.18;1.50;;;17.10;99.90;;;16.48;100.00;101037.78;4152607;28;20421;-75
2023/09/02 00:41:38;;;;;;;4.32;1.95;;;17.10;99.90;;;16.45;100.00;101038.97;4153476;28;20068;-75
2023/09/02 00:43:40;;;;;;;5.45;1.50;;;17.00;99.90;;;16.45;100.00;101036.31;4139605;28;20033;-75
2023/09/02 00:45:43;;;;;;;2.88;1.02;;;17.10;99.90;;;16.44;100.00;101047.13;4151959;28;20068;-75
2023/09/02 00:47:45;;;;;;;4.45;1.65;;;17.00;99.90;;;16.41;100.00;101037.69;4168693;28;20509;-75
2023/09/02 00:49:45;;;;;;;4.10;1.60;;;17.00;99.90;;;16.42;100.00;101047.34;4153348;28;20022;-75
2023/09/02 00:51:46;;;;;;;3.50;1.70;;;17.00;99.90;;;16.41;100.00;101044.84;4152281;28;20044;-75
2023/09/02 00:53:47;;;;;;;3.97;1.42;;;17.00;99.90;;;16.42;100.00;101049.16;4168667;28;20021;-75
2023/09/02 00:55:49;;;;;;;4.07;1.45;;;17.00;99.90;;;16.42;100.00;101051.84;4152194;28;20091;-75
2023/09/02 00:57:49;;;;;;;2.42;1.20;;;17.00;99.90;;;16.43;100.00;101054.28;4152146;28;20030;-75
2023/09/02 00:59:50;;;;;;;4.90;1.52;;;17.00;99.90;;;16.42;100.00;101057.16;4153256;28;20052;-75
2023/09/02 01:01:54;;;;;;;3.20;1.25;;;17.00;99.90;;;16.43;100.00;101042.81;4135329;28;20034;-75
2023/09/02 01:03:55;;;;;;;5.70;1.98;;;17.00;99.90;;;16.37;100.00;101031.06;4152071;28;20025;-75
2023/09/02 01:05:56;;;;;;;4.07;1.50;;;17.00;99.90;;;16.36;100.00;101021.47;4151989;28;20429;-75
2023/09/02 01:07:58;;;;;;;3.20;1.38;;;17.00;99.90;;;16.37;100.00;101017.75;4153172;28;20026;-75
2023/09/02 01:10:00;;;;;;;3.70;1.80;;;17.00;99.90;;;16.29;100.00;100998.41;4151981;28;20077;-75
2023/09/02 01:12:01;;;;;;;6.55;2.60;;;16.90;99.90;;;16.24;100.00;101006.13;4152025;28;20030;-75
2023/09/02 01:14:03;;;;;;;4.32;1.55;;;16.90;99.90;;;16.18;100.00;101002.41;4151659;28;20061;-75
2023/09/02 01:16:04;;;;;;;4.68;1.67;;;16.80;99.90;;;16.10;100.00;100997.16;4151866;28;20022;-75
2023/09/02 01:18:05;;;;;;;4.10;1.50;;;16.80;99.90;;;16.08;100.00;100985.03;4151803;28;20061;-75
2023/09/02 01:20:11;;;;;;;4.32;1.80;;;16.70;99.90;;;16.01;100.00;100990.28;4151725;28;20552;-75
2023/09/02 01:22:30;;;;;;;3.30;2.08;;;16.70;99.90;;;15.94;100.00;100984.91;4151719;28;20051;-75
2023/09/02 01:24:30;;;;;;;3.75;1.65;;;16.60;99.90;;;15.86;100.00;100994.81;4153281;28;20489;-75
2023/09/02 01:27:09;;;;;;;4.97;2.08;;;16.60;99.90;;;15.80;100.00;100996.34;4151570;28;20091;-75
2023/09/02 01:29:18;;;;;;;4.28;2.10;;;16.50;99.90;;;15.75;100.00;100995.25;4152678;28;20084;-75
2023/09/02 01:31:22;;;;;;;3.85;1.70;;;16.40;99.90;;;15.70;100.00;100998.47;4146578;28;20033;-75
2023/09/02 01:33:27;;;;;;;4.63;1.80;;;16.40;99.90;;;15.70;100.00;101002.97;4148455;28;20085;-75
2023/09/02 01:35:34;;;;;;;5.10;1.98;;;16.30;99.90;;;15.66;100.00;100999.00;4147910;28;20026;-75
2023/09/02 01:37:42;;;;;;;4.78;1.80;;;16.30;99.90;;;15.61;100.00;100996.91;4151718;28;20038;-75
2023/09/02 01:39:46;;;;;;;6.95;2.42;;;16.30;99.90;;;15.60;100.00;100992.59;4151502;28;20070;-75
2023/09/02 01:41:48;;;;;;;;;;;16.20;99.90;;;15.52;100.00;100990.03;4151754;28;20033;-75
2023/09/02 01:43:50;;;;;;;3.53;1.98;;;16.20;99.90;;;15.53;100.00;100991.66;4151921;28;19909;-75
2023/09/02 01:45:52;;;;;;;4.03;1.77;;;16.20;99.90;;;15.46;100.00;100994.19;4134921;28;20030;-75
2023/09/02 01:47:54;;;;;;;5.30;2.50;;;16.20;99.90;;;15.48;100.00;101004.69;4151156;28;20050;-75
2023/09/02 01:49:55;;;;;;;5.65;2.00;;;16.10;99.90;;;15.46;100.00;101011.97;4151082;28;20029;-75
2023/09/02 01:51:58;;;;;;;4.75;1.95;;;16.10;99.90;;;15.42;100.00;101011.50;4152579;28;20033;-75
2023/09/02 01:53:59;;;;;;;3.33;1.80;;;16.10;99.90;;;15.41;100.00;100993.09;4151528;28;20025;-75
2023/09/02 01:56:01;;;;;;;6.10;2.10;;;16.00;99.90;;;15.40;100.00;100992.28;4151357;28;20026;-75
2023/09/02 01:58:03;;;;;;;2.90;1.88;;;16.00;99.90;;;15.37;100.00;100983.81;4167665;28;20103;-75
2023/09/02 02:00:05;;;;;;;3.75;1.83;;;16.00;99.90;;;15.30;100.00;100966.94;4152189;28;20033;-75
2023/09/02 02:02:06;;;;;;;4.68;2.00;;;16.00;99.90;;;15.32;100.00;100972.91;4152421;28;20029;-75
2023/09/02 02:04:39;;;;;;;3.78;2.35;;;15.90;99.90;;;15.34;100.00;100978.88;4152400;28;20456;-75
2023/09/02 02:06:42;;;;;;;3.00;1.70;;;15.90;99.90;;;15.35;100.00;100978.66;4150238;28;20400;-75
2023/09/02 02:08:53;;;;;;;7.78;2.20;;;16.00;99.90;;;15.43;100.00;100986.59;4152409;28;20113;-75
2023/09/02 02:10:58;;;;;;;2.75;1.80;;;16.00;99.90;;;15.50;100.00;100992.84;4145656;28;20054;-75
2023/09/02 02:13:01;;;;;;;4.65;2.30;;;16.10;99.90;;;15.58;100.00;100989.28;4151190;28;20065;-75
2023/09/02 02:15:03;;;;;;;6.45;1.83;;;16.20;99.90;;;15.68;100.00;100995.16;4151057;28;20030;-75
2023/09/02 02:17:06;;;;;;;3.25;2.15;;;16.30;99.90;;;15.77;100.00;100998.56;4152460;28;20026;-75
2023/09/02 02:19:07;;;;;;;3.78;2.22;;;16.40;99.90;;;15.79;100.00;100989.41;4150886;28;20092;-75
2023/09/02 02:21:08;;;;;;;4.60;2.83;;;16.40;99.90;;;15.92;100.00;101000.19;4151068;28;20521;-75
2023/09/02 02:23:09;;;;;;;7.95;2.40;;;16.50;99.90;;;15.95;100.00;101012.31;4151269;28;20018;-76
2023/09/02 02:25:10;;;;;;;4.82;1.88;;;16.60;99.90;;;16.03;100.00;101020.22;4151242;28;20038;-75
2023/09/02 02:27:11;;;;;;;3.55;1.50;;;16.60;99.90;;;16.05;100.00;101011.03;4152210;28;20033;-75
2023/09/02 02:29:12;;;;;;;8.18;2.53;;;16.60;99.90;;;16.12;100.00;101013.78;4151126;28;20077;-75
2023/09/02 02:31:12;;;;;;;5.43;2.30;;;16.70;99.90;;;16.16;100.00;101020.38;4152278;28;20084;-75
2023/09/02 02:33:13;;;;;;;4.93;2.10;;;16.70;99.90;;;16.19;100.00;101025.31;4152257;28;20034;-75
2023/09/02 02:35:14;;;;;;;5.72;2.50;;;16.70;99.90;;;16.18;100.00;101022.84;4151337;28;20022;-75
2023/09/02 02:37:15;;;;;;;4.38;1.98;;;16.80;99.90;;;16.16;100.00;101028.34;4151107;28;20518;-75
2023/09/02 02:39:18;;;;;;;3.05;2.25;;;16.80;99.90;;;16.04;100.00;101024.50;4150858;28;20050;-75
2023/09/02 02:41:19;;;;;;;6.97;3.13;;;16.70;99.90;;;15.95;100.00;101025.59;4150792;28;20038;-75
2023/09/02 02:43:26;;;;;;;7.55;2.90;;;16.60;99.90;;;15.92;100.00;101036.63;4152023;28;20021;-75
2023/09/02 02:45:27;;;;;;;4.88;2.33;;;16.60;99.90;;;15.81;100.00;101037.91;4151971;28;20065;-75
2023/09/02 02:47:28;;;;;;;4.53;2.65;;;16.50;99.90;;;15.78;100.00;101045.41;4150931;28;20565;-76
2023/09/02 02:49:29;;;;;;;4.85;2.10;;;16.40;99.90;;;15.74;100.00;101049.47;4152135;28;20033;-75
2023/09/02 02:51:30;;;;;;;4.22;1.92;;;16.40;99.90;;;15.69;100.00;101054.50;4151946;28;20406;-75
2023/09/02 02:53:32;;;;;;;4.35;2.05;;;16.30;99.90;;;15.65;100.00;101053.22;4150925;28;20048;-75
2023/09/02 02:55:33;;;;;;;4.78;2.58;;;16.30;99.90;;;15.64;100.00;101060.38;4150676;28;20037;-75
2023/09/02 02:57:34;;;;;;;6.03;2.55;;;16.20;99.90;;;15.65;100.00;101055.88;4152085;28;20030;-75
2023/09/02 02:59:35;;;;;;;4.28;2.03;;;16.30;99.90;;;15.70;100.00;101056.16;4151621;28;20501;-75
2023/09/02 03:01:36;;;;;;;3.90;1.98;;;16.30;99.90;;;15.73;100.00;101055.78;4152988;28;20108;-75
2023/09/02 03:03:38;;;;;;;4.45;2.25;;;16.30;99.90;;;15.78;100.00;101054.22;4153983;28;20062;-75
2023/09/02 03:05:40;;;;;;;2.85;1.80;;;16.40;99.90;;;15.85;100.00;101049.84;4170277;28;20029;-75
2023/09/02 03:07:41;;;;;;;4.18;2.05;;;16.40;99.90;;;15.95;100.00;101061.03;4153707;28;20037;-75
2023/09/02 03:09:42;;;;;;;4.82;1.95;;;16.50;99.90;;;16.01;100.00;101059.47;4155051;28;20383;-75
2023/09/02 03:11:43;;;;;;;4.90;2.55;;;16.60;99.90;;;16.07;100.00;101069.38;4153917;28;20109;-75
2023/09/02 03:13:44;;;;;;;3.85;1.80;;;16.60;99.90;;;16.09;100.00;101064.72;4155025;28;20041;-75
2023/09/02 03:15:54;;;;;;;3.22;1.70;;;16.70;99.90;;;16.17;100.00;101069.94;4153448;28;20037;-75
2023/09/02 03:17:55;;;;;;;2.55;1.50;;;16.70;99.90;;;16.19;100.00;101061.78;4154779;28;20413;-75
2023/09/02 03:19:56;;;;;;;8.40;2.20;;;16.80;99.90;;;16.21;100.00;101068.56;4154762;28;20041;-75
2023/09/02 03:21:57;;;;;;;3.22;1.98;;;16.80;99.90;;;16.24;100.00;101073.53;4154787;28;20417;-75
2023/09/02 03:23:58;;;;;;;7.35;1.75;;;16.80;99.90;;;16.24;100.00;101081.50;4153403;28;20028;-75
2023/09/02 03:26:15;;;;;;;6.13;1.73;;;16.80;99.90;;;16.25;100.00;101072.50;4148397;28;20022;-75
2023/09/02 03:28:16;;;;;;;2.60;1.45;;;16.80;99.90;;;16.26;100.00;101071.50;4140392;28;20031;-75
2023/09/02 03:30:17;;;;;;;2.85;2.05;;;16.90;99.90;;;16.25;100.00;101072.50;4150804;28;20022;-75
2023/09/02 03:32:18;;;;;;;2.78;1.80;;;16.80;99.90;;;16.31;100.00;101073.59;4153603;28;20113;-75
2023/09/02 03:34:18;;;;;;;5.82;2.15;;;16.90;99.90;;;16.33;100.00;101071.59;4153494;28;20022;-75
2023/09/02 03:36:22;;;;;;;3.88;1.75;;;16.90;99.90;;;16.28;100.00;101061.47;4153812;28;20540;-75
2023/09/02 03:38:23;;;;;;;4.63;1.80;;;16.90;99.90;;;16.30;100.00;101064.78;4153189;28;20042;-75
2023/09/02 03:40:24;;;;;;;4.40;1.67;;;16.90;99.90;;;16.27;100.00;101057.19;4153377;28;20072;-75
2023/09/02 03:42:25;;;;;;;3.05;1.98;;;16.90;99.90;;;16.34;100.00;101067.88;4153284;28;20052;-75
2023/09/02 03:44:26;;;;;;;3.25;1.80;;;16.90;99.90;;;16.33;100.00;101061.75;4154259;28;20049;-75
2023/09/02 03:46:27;;;;;;;2.38;1.70;;;16.90;99.90;;;16.36;100.00;101063.22;4154381;28;20057;-75
2023/09/02 03:48:28;;;;;;;4.50;1.83;;;16.90;99.90;;;16.34;100.00;101058.06;4154366;28;20026;-75
2023/09/02 03:50:29;;;;;;;3.30;2.20;;;16.90;99.90;;;16.35;100.00;101057.06;4153213;28;20433;-75
2023/09/02 03:52:30;;;;;;;3.60;1.73;;;16.90;99.90;;;16.33;100.00;101058.28;4153154;28;20433;-75
2023/09/02 03:54:30;;;;;;;3.15;1.52;;;16.90;99.90;;;16.33;100.00;101063.59;4140579;28;20058;-75
2023/09/02 03:56:36;;;;;;;4.28;1.40;;;16.90;99.90;;;16.34;100.00;101065.22;4153692;28;20035;-75
2023/09/02 03:58:37;;;;;;;2.85;1.77;;;16.90;99.90;;;16.34;100.00;101068.72;4153205;28;20025;-75
2023/09/02 04:00:38;;;;;;;4.18;1.85;;;16.90;99.90;;;16.31;100.00;101065.59;4153714;28;20402;-75
2023/09/02 04:02:39;;;;;;;2.78;1.65;;;16.90;99.90;;;16.29;100.00;101060.47;4152972;28;20073;-75
2023/09/02 04:04:41;;;;;;;3.92;1.63;;;16.90;99.90;;;16.31;100.00;101066.44;4152654;28;20029;-75
2023/09/02 04:06:41;;;;;;;3.70;2.00;;;16.90;99.90;;;16.29;100.00;101057.81;4154173;28;20018;-75
2023/09/02 04:08:42;;;;;;;3.30;1.63;;;16.90;99.90;;;16.28;100.00;101055.31;4147712;28;20022;-75
2023/09/02 04:10:43;;;;;;;3.30;2.10;;;16.90;99.90;;;16.27;100.00;101064.34;4169127;28;20064;-75
2023/09/02 04:12:44;;;;;;;2.90;2.10;;;16.90;99.90;;;16.27;100.00;101067.00;4168920;28;20033;-75
2023/09/02 04:14:45;;;;;;;5.97;2.03;;;16.90;99.90;;;16.28;100.00;101066.78;4153873;28;20030;-75
2023/09/02 04:16:46;;;;;;;4.68;1.80;;;16.90;99.90;;;16.31;100.00;101081.56;4153962;28;20022;-75
2023/09/02 04:18:46;;;;;;;5.72;1.80;;;16.90;99.90;;;16.31;100.00;101081.56;4153716;28;20026;-75
2023/09/02 04:20:47;;;;;;;4.45;1.88;;;16.90;99.90;;;16.34;100.00;101087.34;4152511;28;20029;-74
2023/09/02 04:22:48;;;;;;;4.75;1.55;;;17.00;99.90;;;16.37;100.00;101079.00;4152744;28;20026;-74
2023/09/02 04:24:49;;;;;;;3.30;1.88;;;16.90;99.90;;;16.37;100.00;101079.00;4153920;28;20029;-74
2023/09/02 04:26:51;;;;;;;3.67;1.60;;;17.00;99.90;;;16.42;100.00;101079.28;4136556;28;20421;-75
2023/09/02 04:28:55;;;;;;;3.17;2.08;;;17.00;99.90;;;16.44;100.00;101081.75;4152220;28;20402;-75
2023/09/02 04:30:57;;;;;;;3.08;2.00;;;17.00;99.90;;;16.47;100.00;101076.06;4140174;28;20036;-75
2023/09/02 04:32:58;;;;;;;5.88;2.28;;;17.10;99.90;;;16.50;100.00;101078.34;4149242;28;20057;-75
2023/09/02 04:34:59;;;;;;;5.13;1.85;;;17.10;99.90;;;16.51;100.00;101067.53;4146233;28;20060;-75
2023/09/02 04:37:00;;;;;;;4.20;2.15;;;17.10;99.90;;;16.49;100.00;101066.88;4153601;28;20033;-75
2023/09/02 04:39:04;;;;;;;3.17;1.70;;;17.10;99.90;;;16.53;100.00;101070.81;4152167;28;20050;-75
2023/09/02 04:41:07;;;;;;;5.07;2.45;;;17.20;99.90;;;16.56;100.00;101064.31;4136282;28;20058;-75
2023/09/02 04:43:11;;;;;;;6.00;2.40;;;17.20;99.90;;;16.55;100.00;101063.50;4153868;28;20045;-75
2023/09/02 04:45:12;;;;;;;5.05;1.77;;;17.20;99.90;;;16.55;100.00;101066.16;4151917;28;20094;-75
2023/09/02 04:47:13;;;;;;;6.40;2.55;;;17.20;99.90;;;16.53;100.00;101057.50;4153645;28;20026;-76
2023/09/02 04:49:13;;;;;;;3.00;2.08;;;17.20;99.90;;;16.55;100.00;101057.34;4153064;28;20401;-76
2023/09/02 04:51:14;;;;;;;5.22;2.00;;;17.20;99.90;;;16.56;100.00;101051.84;4153170;28;20045;-76
2023/09/02 04:53:15;;;;;;;6.13;2.28;;;17.20;99.90;;;16.56;100.00;101054.50;4153386;28;20037;-76
2023/09/02 04:55:16;;;;;;;3.97;2.75;;;17.10;99.90;;;16.54;100.00;101061.03;4153420;28;20504;-76
2023/09/02 04:57:17;;;;;;;5.55;2.38;;;17.10;99.90;;;16.53;100.00;101054.84;4152190;28;20034;-77
2023/09/02 04:59:18;;;;;;;7.10;3.38;;;17.10;99.90;;;16.53;100.00;101049.50;4153048;28;20405;-76
2023/09/02 05:01:19;;;;;;;5.45;2.88;;;17.10;99.90;;;16.55;100.00;101052.84;4135561;28;20039;-76
2023/09/02 05:03:20;;;;;;;5.97;2.95;;;17.10;99.90;;;16.54;100.00;101048.53;4153332;28;20018;-76
2023/09/02 05:05:23;;;;;;;5.35;2.30;;;17.10;99.90;;;16.58;100.00;101051.63;4152080;28;20080;-77
2023/09/02 05:07:23;;;;;;;4.88;2.80;;;17.10;99.90;;;16.55;100.00;101047.50;4153193;28;20029;-76
2023/09/02 05:09:24;;;;;;;9.45;3.13;;;17.20;99.90;;;16.55;100.00;101044.84;4151823;28;20037;-77
2023/09/02 05:11:25;;;;;;;6.70;3.15;;;17.20;99.90;;;16.56;100.00;101051.84;4153193;28;20034;-76
2023/09/02 05:13:26;;;;;;;4.93;2.90;;;17.20;99.90;;;16.57;100.00;101052.66;4135047;28;20038;-76
2023/09/02 05:15:27;;;;;;;7.18;3.35;;;17.20;99.90;;;16.58;100.00;101052.47;4139691;28;20552;-77
2023/09/02 05:17:28;;;;;;;5.78;3.20;;;17.20;99.90;;;16.60;100.00;101054.94;4150586;28;20041;-77
2023/09/02 05:19:28;;;;;;;5.78;2.63;;;17.20;99.90;;;16.63;100.00;101056.41;4152832;28;20022;-76
2023/09/02 05:21:29;;;;;;;8.25;2.88;;;17.20;99.90;;;16.61;100.00;101045.13;4150049;28;20030;-76
2023/09/02 05:23:30;;;;;;;6.70;3.72;;;17.20;99.90;;;16.62;100.00;101054.75;4145484;28;20026;-76
2023/09/02 05:25:31;;;;;;;10.32;4.55;;;17.20;99.90;;;16.63;100.00;101059.06;4150576;28;20034;-76
2023/09/02 05:27:32;;;;;;;5.07;2.90;;;17.20;99.90;;;16.59;100.00;101064.78;4152972;28;20025;-77
2023/09/02 05:29:33;;;;;;;5.55;3.25;;;17.20;99.90;;;16.63;100.00;101061.75;4144269;28;20037;-76
2023/09/02 05:31:34;;;;;;;4.57;3.63;;;17.20;99.90;;;16.62;100.00;101057.41;4151896;28;20026;-76
2023/09/02 05:33:34;;;;;;;7.55;3.20;;;17.20;99.90;;;16.61;100.00;101067.22;4151613;28;20037;-77
2023/09/02 05:35:35;;;;;;;6.05;3.13;;;17.20;99.90;;;16.66;100.00;101074.69;4135133;28;20062;-76
2023/09/02 05:37:36;;;;;;;3.97;2.88;;;17.20;99.90;;;16.62;100.00;101068.91;4152626;28;20033;-77
2023/09/02 05:39:37;;;;;;;5.35;2.60;;;17.30;99.90;;;16.69;100.00;101079.63;4136371;28;20484;-76
2023/09/02 05:41:38;;;;;;;4.35;2.22;;;17.20;99.90;;;16.67;100.00;101076.31;4152560;28;20061;-76
2023/09/02 05:43:39;;;;;;;5.93;3.00;;;17.30;99.90;;;16.70;100.00;101073.28;4151596;28;20030;-76
2023/09/02 05:45:40;;;;;;;3.83;2.45;;;17.30;99.90;;;16.70;100.00;101076.78;4152554;28;20080;-76
2023/09/02 05:47:41;;;;;;;4.57;2.92;;;17.30;99.90;;;16.70;100.00;101070.59;4151682;28;20053;-77
2023/09/02 05:49:41;;;;;;;5.22;2.78;;;17.30;99.90;;;16.74;100.00;101072.72;4152534;28;20038;-76
2023/09/02 05:51:43;;;;;;;6.43;2.67;;;17.30;99.90;;;16.75;100.00;101074.38;4151243;28;20113;-76
2023/09/02 05:53:46;;;;;;;5.03;2.55;;;17.30;99.90;;;16.73;100.00;101081.72;4152636;28;20038;-76
2023/09/02 05:55:56;;;;;;;4.75;2.45;;;17.30;99.90;;;16.75;100.00;101082.38;4152626;28;20401;-76
2023/09/02 05:57:57;;;;;;;5.28;2.53;;;17.30;99.90;;;16.78;100.00;101087.34;4151222;28;20037;-76
2023/09/02 05:59:58;;;;;;;5.50;2.63;;;17.30;99.90;;;16.79;100.00;101096.97;4150924;28;20061;-76
2023/09/02 06:01:59;;;;;;;5.28;3.47;;;17.40;99.90;;;16.81;100.00;101100.28;4152597;28;20496;-76
2023/09/02 06:04:00;;;;;;;6.05;3.30;;;17.40;99.90;;;16.84;100.00;101104.41;4152595;28;20026;-76
2023/09/02 06:06:01;;;;;;;4.75;2.97;;;17.40;99.90;;;16.84;100.00;101096.41;4152414;28;20053;-76
2023/09/02 06:08:01;;;;;;;5.97;3.35;;;17.40;99.90;;;16.85;100.00;101106.03;4151010;28;20022;-76
2023/09/02 06:10:03;;;;;;;4.50;2.88;;;17.50;99.90;;;16.89;100.00;101115.31;4142148;28;20057;-77
2023/09/02 06:12:04;;;;;;;4.72;2.88;;;17.50;99.90;;;16.88;100.00;101119.81;4152494;28;20100;-76
2023/09/02 06:14:05;;;;;;;3.67;2.45;;;17.50;99.90;;;16.90;100.00;101122.31;4152122;28;20040;-76
2023/09/02 06:16:06;;;;;;;7.63;3.58;;;17.50;99.90;;;16.86;100.00;101118.34;4151237;28;20536;-77
2023/09/02 06:18:08;;;;;;;4.78;3.30;;;17.50;99.90;;;16.91;100.00;101131.94;4148918;28;20022;-77
2023/09/02 06:20:09;;;;;;;4.47;2.83;;;17.50;99.90;;;16.91;100.00;101132.75;4145018;28;20072;-77
2023/09/02 06:22:11;;;;;;;6.85;3.72;;;17.50;99.90;;;16.94;100.00;101139.56;4137424;28;20027;-77
2023/09/02 06:24:12;;;;;;;10.63;5.15;;;17.50;99.90;;;16.90;100.00;101135.63;4139941;28;20092;-76
2023/09/02 06:26:13;;;;;;;7.38;4.88;;;17.50;99.90;;;16.85;100.00;101135.34;4152446;28;20030;-77
2023/09/02 06:28:14;;;;;;;7.50;5.25;;;17.50;99.90;;;16.82;100.00;101133.88;4149446;28;20463;-76
2023/09/02 06:30:15;;;;;;;8.88;4.70;;;17.50;99.90;;;16.88;100.00;101140.31;4148028;28;20049;-76
2023/09/02 06:32:16;;;;;;;8.50;5.72;;;17.50;99.90;;;16.88;100.00;101142.97;4152302;28;20038;-77
2023/09/02 06:34:22;;;;;;;8.88;4.82;;;17.50;99.90;;;16.88;100.00;101146.47;4152272;28;20033;-76
2023/09/02 06:36:23;;;;;;;7.72;4.40;;;17.50;99.90;;;16.89;100.00;101150.78;4152088;28;20470;-76
2023/09/02 06:38:24;;;;;;;9.10;3.70;;;17.50;99.90;;;16.89;100.00;101147.28;4155224;28;20048;-77
2023/09/02 06:40:25;;;;;;;7.55;3.85;;;17.50;99.90;;;16.97;100.00;101153.34;4154290;28;20038;-76
2023/09/02 06:42:26;;;;;;;8.95;4.55;;;17.50;99.90;;;17.00;100.00;101160.13;4155612;28;20022;-76
2023/09/02 06:44:26;;;;;;;4.82;3.83;;;17.60;99.90;;;17.03;100.00;101152.59;4154203;28;20460;-76
2023/09/02 06:46:28;;;;;;;7.65;3.92;;;17.60;99.90;;;17.08;100.00;101141.38;4141017;28;20077;-77
2023/09/02 06:48:28;;;;;;;6.63;4.35;;;17.60;99.90;;;17.15;100.00;101145.75;4139375;28;20463;-76
2023/09/02 06:50:29;;;;;;;8.05;4.65;;;17.70;99.90;;;17.20;100.00;101145.19;4141061;28;20078;-77
2023/09/02 06:52:30;;;;;;;9.85;5.28;;;17.70;99.90;;;17.27;100.00;101147.91;4155311;28;20034;-76
2023/09/02 06:54:31;;;;;;;10.20;4.65;;;17.80;99.90;;;17.27;100.00;101138.06;4155298;28;20034;-76
2023/09/02 06:56:32;;;;;;;7.35;4.30;;;17.90;99.90;;;17.33;100.00;101147.97;4155271;28;20092;-76
2023/09/02 06:58:33;;;;;;;10.73;4.80;;;17.90;99.90;;;17.37;100.00;101151.94;4153976;28;20022;-76
2023/09/02 07:00:36;;;;;;;6.55;4.80;;;17.90;99.90;;;17.38;100.00;101155.44;4154906;28;20033;-76
2023/09/02 07:02:37;;;;;;;5.45;4.22;;;18.00;99.90;;;17.41;100.00;101155.84;4153953;28;20019;-76
2023/09/02 07:04:37;;;;;;;6.20;3.90;;;18.00;99.90;;;17.44;100.00;101155.47;4153832;28;20033;-76
2023/09/02 07:06:38;;;;;;;6.97;3.38;;;18.10;99.90;;;17.53;100.00;101159.66;4129160;28;20015;-76
2023/09/02 07:08:40;;;;;;;5.38;2.63;;;18.10;99.90;;;17.61;100.00;101164.91;4147325;28;20030;-76
2023/09/02 07:10:41;;;;;;;5.40;3.50;;;18.10;99.90;;;17.67;100.00;101166.81;4153961;28;20080;-77
2023/09/02 07:12:41;;;;;;;5.47;2.85;;;18.20;99.90;;;17.79;100.00;101175.13;4154994;28;20034;-77
2023/09/02 07:14:42;;;;;;;7.47;3.20;;;18.30;99.90;;;17.82;100.00;101174.75;4152100;28;20026;-76
2023/09/02 07:16:43;;;;;;;7.78;3.05;;;18.40;99.90;;;17.85;100.00;101162.84;4154977;28;20040;-77
2023/09/02 07:18:44;;;;;;;5.65;3.58;;;18.40;99.90;;;18.01;100.00;101173.25;4153532;28;20034;-76
2023/09/02 07:20:45;;;;;;;3.78;2.80;;;18.50;99.90;;;18.07;100.00;101173.28;4154653;28;20549;-77
2023/09/02 07:22:46;;;;;;;6.90;2.60;;;18.60;99.90;;;18.23;100.00;101173.00;4153828;28;20065;-77
2023/09/02 07:24:47;;;;;;;5.93;3.00;;;18.70;99.90;;;18.27;100.00;101173.44;4153750;28;20034;-77
2023/09/02 07:26:47;;;;;;;4.82;3.13;;;18.80;99.90;;;18.43;100.00;101178.47;4154729;28;20478;-76
2023/09/02 07:28:49;;;;;;;5.25;2.83;;;19.00;99.90;;;18.59;100.00;101178.19;4153285;28;20022;-77
2023/09/02 07:30:50;;;;;;;6.28;2.60;;;19.00;99.90;;;18.58;100.00;101176.53;4154745;28;20029;-76
2023/09/02 07:32:51;;;;;;;4.90;2.50;;;19.20;99.90;;;18.61;100.00;101180.66;4153545;28;20080;-77
2023/09/02 07:34:52;;;;;;;6.25;3.13;;;19.20;99.90;;;18.66;100.00;101179.06;4153556;28;20026;-76
2023/09/02 07:36:52;;;;;;;4.88;2.72;;;19.20;99.90;;;18.63;100.00;101182.13;4151156;28;20034;-77
2023/09/02 07:38:53;;;;;;;5.25;2.20;;;19.20;99.90;;;18.66;100.00;101178.22;4151453;28;20045;-76
2023/09/02 07:40:54;;;;;;;3.97;2.80;;;19.20;99.90;;;18.59;100.00;101172.84;4154518;28;20034;-76
2023/09/02 07:42:55;;;;;;;5.13;3.00;;;19.20;99.90;;;18.44;100.00;101187.31;4154473;28;20029;-76
2023/09/02 07:44:56;;;;;;;7.63;3.40;;;19.00;99.90;;;18.21;100.00;101180.41;4152906;28;20043;-75
2023/09/02 07:46:57;;;;;;;3.90;2.78;;;18.90;99.90;;;18.08;100.00;101182.13;4152885;28;20033;-76
2023/09/02 07:48:58;;;;;;;5.75;3.03;;;18.80;99.90;;;17.99;100.00;101177.94;4153192;28;20022;-75
2023/09/02 07:51:00;;;;;;;7.88;3.97;;;18.70;99.90;;;17.97;100.00;101180.00;4153097;28;20026;-75
2023/09/02 07:53:01;;;;;;;7.00;3.88;;;18.60;99.90;;;17.90;100.00;101190.63;4139064;28;20034;-76
2023/09/02 07:55:03;;;;;;;5.18;2.88;;;18.60;99.90;;;17.89;100.00;101193.50;4136901;28;20498;-76
2023/09/02 07:57:04;;;;;;;6.10;2.55;;;18.50;99.90;;;17.91;100.00;101191.44;4145632;28;20029;-76
2023/09/02 07:59:05;;;;;;;3.58;2.40;;;18.50;99.90;;;18.01;100.00;101202.63;4144600;28;20029;-75
2023/09/02 08:01:06;;;;;;;4.97;2.35;;;18.50;99.90;;;18.14;100.00;101206.22;4151866;28;20026;-75
2023/09/02 08:03:07;;;;;;;4.50;2.35;;;18.60;99.90;;;18.25;100.00;101207.50;4153132;28;20026;-74
2023/09/02 08:05:09;;;;;;;6.85;2.80;;;18.70;99.90;;;18.35;100.00;101212.53;4152931;28;20076;-76
2023/09/02 08:07:10;;;;;;;5.32;2.90;;;18.80;99.90;;;18.42;100.00;101216.91;4152956;28;20080;-74
2023/09/02 08:09:11;;;;;;;6.80;2.70;;;18.90;99.90;;;18.49;100.00;101220.44;4153931;28;20021;-77
2023/09/02 08:11:17;;;;;;;6.93;3.38;;;19.00;99.90;;;18.62;100.00;101220.53;4152991;28;20026;-77
2023/09/02 08:13:18;;;;;;;5.90;2.40;;;19.10;99.90;;;18.76;100.00;101227.59;4169111;28;20168;-77
2023/09/02 08:15:19;;;;;;;4.68;2.78;;;19.20;99.90;;;18.97;100.00;101220.50;4152478;28;20030;-74
2023/09/02 08:17:20;;;;;;;3.85;2.35;;;19.40;99.90;;;19.24;100.00;101224.94;4153845;28;20034;-76
2023/09/02 08:19:21;;;;;;;4.13;3.38;;;19.60;99.90;;;19.50;100.00;101222.38;4152613;28;20493;-74
2023/09/02 08:21:22;;;;;;;4.50;2.35;;;19.80;99.90;;;19.73;100.00;101235.38;4153830;28;20184;-78